sensor_id;sensor_type;location;lat;lon;timestamp;temperature;humidity
71084;DHT22;58741;52.672;13.548;2023-05-15T00:00:02;10.30;94.90
71084;DHT22;58741;52.672;13.548;2023-05-15T00:02:38;10.30;94.80
71084;DHT22;58741;52.672;13.548;2023-05-15T00:05:05;10.20;95.30
71084;DHT22;58741;52.672;13.548;2023-05-15T00:07:32;10.20;95.10
71084;DHT22;58741;52.672;13.548;2023-05-15T00:09:58;10.20;95.10
71084;DHT22;58741;52.672;13.548;2023-05-15T00:12:24;10.10;95.30
71084;DHT22;58741;52.672;13.548;2023-05-15T00:14:50;10.20;95.20
71084;DHT22;58741;52.672;13.548;2023-05-15T00:17:16;10.10;95.50
71084;DHT22;58741;52.672;13.548;2023-05-15T00:19:41;10.10;95.70
71084;DHT22;58741;52.672;13.548;2023-05-15T00:22:07;10.10;95.80
71084;DHT22;58741;52.672;13.548;2023-05-15T00:24:33;10.00;95.70
71084;DHT22;58741;52.672;13.548;2023-05-15T00:27:00;10.00;95.70
71084;DHT22;58741;52.672;13.548;2023-05-15T00:29:26;10.00;95.60
71084;DHT22;58741;52.672;13.548;2023-05-15T00:31:51;10.00;95.70
71084;DHT22;58741;52.672;13.548;2023-05-15T00:34:17;10.00;96.00
71084;DHT22;58741;52.672;13.548;2023-05-15T00:36:43;9.90;96.30
71084;DHT22;58741;52.672;13.548;2023-05-15T00:39:10;9.90;95.90
71084;DHT22;58741;52.672;13.548;2023-05-15T00:41:36;9.90;96.10
71084;DHT22;58741;52.672;13.548;2023-05-15T00:44:02;9.80;95.80
71084;DHT22;58741;52.672;13.548;2023-05-15T00:46:30;9.90;95.90
71084;DHT22;58741;52.672;13.548;2023-05-15T00:48:56;9.80;96.20
71084;DHT22;58741;52.672;13.548;2023-05-15T00:51:22;9.80;96.30
71084;DHT22;58741;52.672;13.548;2023-05-15T00:53:49;9.80;96.20
71084;DHT22;58741;52.672;13.548;2023-05-15T00:56:16;9.70;96.40
71084;DHT22;58741;52.672;13.548;2023-05-15T00:58:45;9.70;96.10
71084;DHT22;58741;52.672;13.548;2023-05-15T01:01:13;9.70;96.30
71084;DHT22;58741;52.672;13.548;2023-05-15T01:03:40;9.60;96.50
71084;DHT22;58741;52.672;13.548;2023-05-15T01:06:06;9.60;96.30
71084;DHT22;58741;52.672;13.548;2023-05-15T01:08:42;9.60;96.50
71084;DHT22;58741;52.672;13.548;2023-05-15T01:11:09;9.50;96.80
71084;DHT22;58741;52.672;13.548;2023-05-15T01:13:36;9.50;96.50
71084;DHT22;58741;52.672;13.548;2023-05-15T01:16:02;9.50;96.60
71084;DHT22;58741;52.672;13.548;2023-05-15T01:18:28;9.50;96.90
71084;DHT22;58741;52.672;13.548;2023-05-15T01:29:29;9.30;97.00
71084;DHT22;58741;52.672;13.548;2023-05-15T01:32:03;9.20;97.00
71084;DHT22;58741;52.672;13.548;2023-05-15T01:34:36;9.20;96.90
71084;DHT22;58741;52.672;13.548;2023-05-15T01:37:05;9.20;97.00
71084;DHT22;58741;52.672;13.548;2023-05-15T01:39:32;9.10;96.90
71084;DHT22;58741;52.672;13.548;2023-05-15T01:42:05;9.10;96.80
71084;DHT22;58741;52.672;13.548;2023-05-15T01:44:45;9.10;96.90
71084;DHT22;58741;52.672;13.548;2023-05-15T01:47:20;9.10;96.80
71084;DHT22;58741;52.672;13.548;2023-05-15T01:49:47;9.00;96.70
71084;DHT22;58741;52.672;13.548;2023-05-15T01:52:18;9.00;96.60
71084;DHT22;58741;52.672;13.548;2023-05-15T01:54:45;9.00;97.00
71084;DHT22;58741;52.672;13.548;2023-05-15T01:57:12;8.90;97.20
71084;DHT22;58741;52.672;13.548;2023-05-15T01:59:40;8.90;97.10
71084;DHT22;58741;52.672;13.548;2023-05-15T02:02:06;8.90;97.10
71084;DHT22;58741;52.672;13.548;2023-05-15T02:04:33;8.90;97.00
71084;DHT22;58741;52.672;13.548;2023-05-15T02:07:00;8.80;97.00
71084;DHT22;58741;52.672;13.548;2023-05-15T02:09:27;8.80;97.00
71084;DHT22;58741;52.672;13.548;2023-05-15T02:11:53;8.70;97.10
71084;DHT22;58741;52.672;13.548;2023-05-15T02:14:20;8.70;97.20
71084;DHT22;58741;52.672;13.548;2023-05-15T02:16:46;8.70;97.10
71084;DHT22;58741;52.672;13.548;2023-05-15T02:19:12;8.60;97.40
71084;DHT22;58741;52.672;13.548;2023-05-15T02:21:40;8.60;97.50
71084;DHT22;58741;52.672;13.548;2023-05-15T02:24:06;8.60;97.60
71084;DHT22;58741;52.672;13.548;2023-05-15T02:26:54;8.50;97.80
71084;DHT22;58741;52.672;13.548;2023-05-15T02:29:33;8.50;97.60
71084;DHT22;58741;52.672;13.548;2023-05-15T02:37:16;8.50;98.20
71084;DHT22;58741;52.672;13.548;2023-05-15T02:39:46;8.40;97.90
71084;DHT22;58741;52.672;13.548;2023-05-15T02:42:14;8.40;98.10
71084;DHT22;58741;52.672;13.548;2023-05-15T02:44:41;8.40;98.30
71084;DHT22;58741;52.672;13.548;2023-05-15T02:47:08;8.40;98.30
71084;DHT22;58741;52.672;13.548;2023-05-15T02:49:34;8.30;98.40
71084;DHT22;58741;52.672;13.548;2023-05-15T02:52:00;8.30;98.10
71084;DHT22;58741;52.672;13.548;2023-05-15T02:54:25;8.30;98.40
71084;DHT22;58741;52.672;13.548;2023-05-15T02:56:51;8.30;98.30
71084;DHT22;58741;52.672;13.548;2023-05-15T02:59:17;8.20;98.40
71084;DHT22;58741;52.672;13.548;2023-05-15T03:01:45;8.20;98.50
71084;DHT22;58741;52.672;13.548;2023-05-15T03:04:13;8.20;98.50
71084;DHT22;58741;52.672;13.548;2023-05-15T03:06:39;8.20;98.50
71084;DHT22;58741;52.672;13.548;2023-05-15T03:09:04;8.20;98.50
71084;DHT22;58741;52.672;13.548;2023-05-15T03:11:30;8.10;98.70
71084;DHT22;58741;52.672;13.548;2023-05-15T03:13:55;8.10;98.50
71084;DHT22;58741;52.672;13.548;2023-05-15T03:16:21;8.10;98.90
71084;DHT22;58741;52.672;13.548;2023-05-15T03:18:46;8.10;98.70
71084;DHT22;58741;52.672;13.548;2023-05-15T03:21:12;8.00;98.70
71084;DHT22;58741;52.672;13.548;2023-05-15T03:23:38;8.00;98.80
71084;DHT22;58741;52.672;13.548;2023-05-15T03:26:04;8.00;98.80
71084;DHT22;58741;52.672;13.548;2023-05-15T03:28:30;8.00;98.70
71084;DHT22;58741;52.672;13.548;2023-05-15T03:30:55;8.00;98.60
71084;DHT22;58741;52.672;13.548;2023-05-15T03:33:21;8.00;98.70
71084;DHT22;58741;52.672;13.548;2023-05-15T03:35:46;8.00;98.90
71084;DHT22;58741;52.672;13.548;2023-05-15T03:38:13;7.90;98.80
71084;DHT22;58741;52.672;13.548;2023-05-15T03:40:39;7.90;98.80
71084;DHT22;58741;52.672;13.548;2023-05-15T03:43:05;7.90;99.00
71084;DHT22;58741;52.672;13.548;2023-05-15T03:45:33;7.90;98.90
71084;DHT22;58741;52.672;13.548;2023-05-15T03:47:59;7.90;99.00
71084;DHT22;58741;52.672;13.548;2023-05-15T03:50:25;7.90;99.30
71084;DHT22;58741;52.672;13.548;2023-05-15T03:52:51;7.90;99.40
71084;DHT22;58741;52.672;13.548;2023-05-15T03:55:17;7.80;99.30
71084;DHT22;58741;52.672;13.548;2023-05-15T03:57:42;7.90;99.80
71084;DHT22;58741;52.672;13.548;2023-05-15T04:00:08;7.80;99.60
71084;DHT22;58741;52.672;13.548;2023-05-15T04:02:37;7.90;99.60
71084;DHT22;58741;52.672;13.548;2023-05-15T04:05:04;7.90;99.70
71084;DHT22;58741;52.672;13.548;2023-05-15T04:07:31;7.90;99.60
71084;DHT22;58741;52.672;13.548;2023-05-15T04:09:56;7.90;99.90
71084;DHT22;58741;52.672;13.548;2023-05-15T04:12:27;7.90;99.90
71084;DHT22;58741;52.672;13.548;2023-05-15T04:14:55;7.90;99.90
71084;DHT22;58741;52.672;13.548;2023-05-15T04:17:20;7.90;99.90
71084;DHT22;58741;52.672;13.548;2023-05-15T04:19:46;7.90;99.90
71084;DHT22;58741;52.672;13.548;2023-05-15T04:22:12;8.00;99.90
71084;DHT22;58741;52.672;13.548;2023-05-15T04:24:38;8.00;99.90
71084;DHT22;58741;52.672;13.548;2023-05-15T04:27:04;8.00;99.90
71084;DHT22;58741;52.672;13.548;2023-05-15T04:29:29;8.00;99.90
71084;DHT22;58741;52.672;13.548;2023-05-15T04:31:55;8.00;99.90
71084;DHT22;58741;52.672;13.548;2023-05-15T04:34:20;8.00;99.90
71084;DHT22;58741;52.672;13.548;2023-05-15T04:36:47;8.10;99.90
71084;DHT22;58741;52.672;13.548;2023-05-15T04:39:13;8.10;99.90
71084;DHT22;58741;52.672;13.548;2023-05-15T04:41:39;8.10;99.90
71084;DHT22;58741;52.672;13.548;2023-05-15T04:44:04;8.10;99.90
71084;DHT22;58741;52.672;13.548;2023-05-15T04:46:30;8.20;99.90
71084;DHT22;58741;52.672;13.548;2023-05-15T04:48:59;8.20;99.90
71084;DHT22;58741;52.672;13.548;2023-05-15T04:51:24;8.30;99.90
71084;DHT22;58741;52.672;13.548;2023-05-15T04:53:50;8.20;99.90
71084;DHT22;58741;52.672;13.548;2023-05-15T04:56:15;8.30;99.90
71084;DHT22;58741;52.672;13.548;2023-05-15T04:58:41;8.40;99.90
71084;DHT22;58741;52.672;13.548;2023-05-15T05:01:07;8.50;99.90
71084;DHT22;58741;52.672;13.548;2023-05-15T05:03:32;8.50;99.90
71084;DHT22;58741;52.672;13.548;2023-05-15T05:05:58;8.60;99.90
71084;DHT22;58741;52.672;13.548;2023-05-15T05:08:23;8.70;99.90
71084;DHT22;58741;52.672;13.548;2023-05-15T05:10:54;8.80;99.90
71084;DHT22;58741;52.672;13.548;2023-05-15T05:13:20;8.90;99.90
71084;DHT22;58741;52.672;13.548;2023-05-15T05:15:46;9.00;99.90
71084;DHT22;58741;52.672;13.548;2023-05-15T05:18:11;9.00;99.90
71084;DHT22;58741;52.672;13.548;2023-05-15T05:20:37;9.10;99.90
71084;DHT22;58741;52.672;13.548;2023-05-15T05:23:02;9.30;99.90
71084;DHT22;58741;52.672;13.548;2023-05-15T05:25:28;9.40;99.90
71084;DHT22;58741;52.672;13.548;2023-05-15T05:27:54;9.50;99.90
71084;DHT22;58741;52.672;13.548;2023-05-15T05:30:19;9.60;99.90
71084;DHT22;58741;52.672;13.548;2023-05-15T05:32:46;9.70;99.90
71084;DHT22;58741;52.672;13.548;2023-05-15T05:35:12;9.80;99.90
71084;DHT22;58741;52.672;13.548;2023-05-15T05:37:38;9.80;99.90
71084;DHT22;58741;52.672;13.548;2023-05-15T05:40:04;9.90;99.90
71084;DHT22;58741;52.672;13.548;2023-05-15T05:42:31;9.90;99.90
71084;DHT22;58741;52.672;13.548;2023-05-15T05:44:56;9.90;99.80
71084;DHT22;58741;52.672;13.548;2023-05-15T05:47:22;10.00;99.70
71084;DHT22;58741;52.672;13.548;2023-05-15T05:49:47;10.00;99.90
71084;DHT22;58741;52.672;13.548;2023-05-15T05:52:13;10.10;99.90
71084;DHT22;58741;52.672;13.548;2023-05-15T05:54:40;10.20;99.90
71084;DHT22;58741;52.672;13.548;2023-05-15T05:57:06;10.20;99.90
71084;DHT22;58741;52.672;13.548;2023-05-15T05:59:32;10.30;99.90
71084;DHT22;58741;52.672;13.548;2023-05-15T06:01:57;10.40;99.90
71084;DHT22;58741;52.672;13.548;2023-05-15T06:04:23;10.50;99.90
71084;DHT22;58741;52.672;13.548;2023-05-15T06:06:48;10.60;99.90
71084;DHT22;58741;52.672;13.548;2023-05-15T06:09:14;10.70;99.90
71084;DHT22;58741;52.672;13.548;2023-05-15T06:11:40;10.90;99.90
71084;DHT22;58741;52.672;13.548;2023-05-15T06:14:07;11.00;99.90
71084;DHT22;58741;52.672;13.548;2023-05-15T06:16:32;11.20;99.90
71084;DHT22;58741;52.672;13.548;2023-05-15T06:18:58;11.30;99.90
71084;DHT22;58741;52.672;13.548;2023-05-15T06:21:23;11.40;99.90
71084;DHT22;58741;52.672;13.548;2023-05-15T06:23:49;11.60;99.90
71084;DHT22;58741;52.672;13.548;2023-05-15T06:26:15;11.70;99.90
71084;DHT22;58741;52.672;13.548;2023-05-15T06:28:40;11.80;99.90
71084;DHT22;58741;52.672;13.548;2023-05-15T06:31:06;12.00;99.90
71084;DHT22;58741;52.672;13.548;2023-05-15T06:33:32;12.20;99.90
71084;DHT22;58741;52.672;13.548;2023-05-15T06:35:57;12.40;99.90
71084;DHT22;58741;52.672;13.548;2023-05-15T06:38:23;12.60;99.90
71084;DHT22;58741;52.672;13.548;2023-05-15T06:40:48;12.70;99.90
71084;DHT22;58741;52.672;13.548;2023-05-15T06:43:14;12.90;99.90
71084;DHT22;58741;52.672;13.548;2023-05-15T06:45:39;13.10;99.90
71084;DHT22;58741;52.672;13.548;2023-05-15T06:48:05;13.40;99.90
71084;DHT22;58741;52.672;13.548;2023-05-15T06:50:30;13.50;99.90
71084;DHT22;58741;52.672;13.548;2023-05-15T06:54:48;13.80;99.50
71084;DHT22;58741;52.672;13.548;2023-05-15T06:57:14;14.00;99.40
71084;DHT22;58741;52.672;13.548;2023-05-15T06:59:40;14.10;98.90
71084;DHT22;58741;52.672;13.548;2023-05-15T07:02:06;14.30;98.70
71084;DHT22;58741;52.672;13.548;2023-05-15T07:04:31;14.40;98.60
71084;DHT22;58741;52.672;13.548;2023-05-15T07:06:57;14.50;97.90
71084;DHT22;58741;52.672;13.548;2023-05-15T07:09:23;14.60;97.40
71084;DHT22;58741;52.672;13.548;2023-05-15T07:11:49;14.70;97.20
71084;DHT22;58741;52.672;13.548;2023-05-15T07:15:10;14.90;96.90
71084;DHT22;58741;52.672;13.548;2023-05-15T07:17:35;15.00;97.20
71084;DHT22;58741;52.672;13.548;2023-05-15T07:20:01;15.20;97.20
71084;DHT22;58741;52.672;13.548;2023-05-15T07:22:27;15.30;96.90
71084;DHT22;58741;52.672;13.548;2023-05-15T07:24:53;15.40;96.80
71084;DHT22;58741;52.672;13.548;2023-05-15T07:27:19;15.60;95.40
71084;DHT22;58741;52.672;13.548;2023-05-15T07:29:44;15.70;95.70
71084;DHT22;58741;52.672;13.548;2023-05-15T07:32:10;15.90;95.60
71084;DHT22;58741;52.672;13.548;2023-05-15T07:34:35;16.00;95.30
71084;DHT22;58741;52.672;13.548;2023-05-15T07:37:01;16.10;94.50
71084;DHT22;58741;52.672;13.548;2023-05-15T07:39:27;16.30;94.10
71084;DHT22;58741;52.672;13.548;2023-05-15T07:41:52;16.40;93.50
71084;DHT22;58741;52.672;13.548;2023-05-15T07:44:18;16.60;93.20
71084;DHT22;58741;52.672;13.548;2023-05-15T07:46:43;16.60;93.10
71084;DHT22;58741;52.672;13.548;2023-05-15T07:49:09;16.80;93.10
71084;DHT22;58741;52.672;13.548;2023-05-15T07:51:35;16.90;92.40
71084;DHT22;58741;52.672;13.548;2023-05-15T07:54:00;17.00;91.80
71084;DHT22;58741;52.672;13.548;2023-05-15T07:56:28;17.10;91.70
71084;DHT22;58741;52.672;13.548;2023-05-15T07:58:54;17.20;91.50
71084;DHT22;58741;52.672;13.548;2023-05-15T08:01:19;17.30;91.30
71084;DHT22;58741;52.672;13.548;2023-05-15T08:03:45;17.30;90.70
71084;DHT22;58741;52.672;13.548;2023-05-15T08:06:10;17.30;90.20
71084;DHT22;58741;52.672;13.548;2023-05-15T08:08:36;17.40;87.00
71084;DHT22;58741;52.672;13.548;2023-05-15T08:11:01;17.40;89.20
71084;DHT22;58741;52.672;13.548;2023-05-15T08:15:17;17.40;87.20
71084;DHT22;58741;52.672;13.548;2023-05-15T08:17:42;17.50;87.50
71084;DHT22;58741;52.672;13.548;2023-05-15T08:20:08;17.40;87.90
71084;DHT22;58741;52.672;13.548;2023-05-15T08:22:34;17.40;85.90
71084;DHT22;58741;52.672;13.548;2023-05-15T08:25:00;17.40;87.30
71084;DHT22;58741;52.672;13.548;2023-05-15T08:27:28;17.50;86.80
71084;DHT22;58741;52.672;13.548;2023-05-15T08:29:53;17.40;85.70
71084;DHT22;58741;52.672;13.548;2023-05-15T08:32:19;17.50;85.40
71084;DHT22;58741;52.672;13.548;2023-05-15T08:34:45;17.40;86.30
71084;DHT22;58741;52.672;13.548;2023-05-15T08:37:10;17.50;86.30
71084;DHT22;58741;52.672;13.548;2023-05-15T08:39:36;17.40;86.60
71084;DHT22;58741;52.672;13.548;2023-05-15T08:44:13;17.50;86.40
71084;DHT22;58741;52.672;13.548;2023-05-15T08:46:39;17.60;86.80
71084;DHT22;58741;52.672;13.548;2023-05-15T08:52:06;17.70;87.10
71084;DHT22;58741;52.672;13.548;2023-05-15T08:54:32;17.80;87.10
71084;DHT22;58741;52.672;13.548;2023-05-15T08:56:59;17.80;87.10
71084;DHT22;58741;52.672;13.548;2023-05-15T08:59:26;17.90;86.30
71084;DHT22;58741;52.672;13.548;2023-05-15T09:01:52;17.90;85.70
71084;DHT22;58741;52.672;13.548;2023-05-15T09:04:19;17.90;85.70
71084;DHT22;58741;52.672;13.548;2023-05-15T09:06:46;17.90;85.60
71084;DHT22;58741;52.672;13.548;2023-05-15T09:09:12;17.90;85.40
71084;DHT22;58741;52.672;13.548;2023-05-15T09:11:45;17.90;85.00
71084;DHT22;58741;52.672;13.548;2023-05-15T09:14:46;17.80;83.10
71084;DHT22;58741;52.672;13.548;2023-05-15T09:17:12;17.80;83.70
71084;DHT22;58741;52.672;13.548;2023-05-15T09:19:38;17.80;83.80
71084;DHT22;58741;52.672;13.548;2023-05-15T09:22:15;17.70;84.50
71084;DHT22;58741;52.672;13.548;2023-05-15T09:24:43;17.70;84.90
71084;DHT22;58741;52.672;13.548;2023-05-15T09:27:09;17.70;85.20
71084;DHT22;58741;52.672;13.548;2023-05-15T09:29:36;17.70;85.40
71084;DHT22;58741;52.672;13.548;2023-05-15T09:32:07;17.70;85.50
71084;DHT22;58741;52.672;13.548;2023-05-15T09:34:39;17.70;85.70
71084;DHT22;58741;52.672;13.548;2023-05-15T09:37:07;17.60;85.80
71084;DHT22;58741;52.672;13.548;2023-05-15T09:39:34;17.60;84.30
71084;DHT22;58741;52.672;13.548;2023-05-15T09:42:08;17.60;85.50
71084;DHT22;58741;52.672;13.548;2023-05-15T09:45:16;17.50;85.30
71084;DHT22;58741;52.672;13.548;2023-05-15T09:47:42;17.50;86.50
71084;DHT22;58741;52.672;13.548;2023-05-15T09:50:08;17.50;87.00
71084;DHT22;58741;52.672;13.548;2023-05-15T09:52:34;17.40;87.40
71084;DHT22;58741;52.672;13.548;2023-05-15T09:55:00;17.40;87.40
71084;DHT22;58741;52.672;13.548;2023-05-15T09:57:26;17.40;88.10
71084;DHT22;58741;52.672;13.548;2023-05-15T09:59:52;17.50;89.10
71084;DHT22;58741;52.672;13.548;2023-05-15T10:02:24;17.40;89.30
71084;DHT22;58741;52.672;13.548;2023-05-15T10:04:56;17.50;90.20
71084;DHT22;58741;52.672;13.548;2023-05-15T10:07:33;17.60;90.30
71084;DHT22;58741;52.672;13.548;2023-05-15T10:10:01;17.60;90.70
71084;DHT22;58741;52.672;13.548;2023-05-15T10:12:27;17.60;90.90
71084;DHT22;58741;52.672;13.548;2023-05-15T10:14:56;17.60;90.70
71084;DHT22;58741;52.672;13.548;2023-05-15T10:17:23;17.70;90.90
71084;DHT22;58741;52.672;13.548;2023-05-15T10:19:51;17.70;91.40
71084;DHT22;58741;52.672;13.548;2023-05-15T10:22:20;17.60;91.00
71084;DHT22;58741;52.672;13.548;2023-05-15T10:24:51;17.60;90.80
71084;DHT22;58741;52.672;13.548;2023-05-15T10:27:17;17.60;90.70
71084;DHT22;58741;52.672;13.548;2023-05-15T10:29:44;17.60;90.90
71084;DHT22;58741;52.672;13.548;2023-05-15T10:32:12;17.60;91.50
71084;DHT22;58741;52.672;13.548;2023-05-15T10:34:37;17.60;91.90
71084;DHT22;58741;52.672;13.548;2023-05-15T10:37:03;17.60;92.10
71084;DHT22;58741;52.672;13.548;2023-05-15T10:39:30;17.70;92.50
71084;DHT22;58741;52.672;13.548;2023-05-15T10:41:57;17.70;92.70
71084;DHT22;58741;52.672;13.548;2023-05-15T10:44:23;17.80;92.90
71084;DHT22;58741;52.672;13.548;2023-05-15T10:46:49;17.80;92.80
71084;DHT22;58741;52.672;13.548;2023-05-15T10:49:15;18.00;92.60
71084;DHT22;58741;52.672;13.548;2023-05-15T10:51:41;18.10;91.80
71084;DHT22;58741;52.672;13.548;2023-05-15T10:54:08;18.20;91.60
71084;DHT22;58741;52.672;13.548;2023-05-15T10:56:36;18.30;92.00
71084;DHT22;58741;52.672;13.548;2023-05-15T10:59:07;18.50;90.70
71084;DHT22;58741;52.672;13.548;2023-05-15T11:01:37;18.70;90.70
71084;DHT22;58741;52.672;13.548;2023-05-15T11:04:15;18.80;90.20
71084;DHT22;58741;52.672;13.548;2023-05-15T11:06:48;19.00;90.50
71084;DHT22;58741;52.672;13.548;2023-05-15T11:12:10;19.60;90.70
71084;DHT22;58741;52.672;13.548;2023-05-15T11:18:01;20.30;86.40
71084;DHT22;58741;52.672;13.548;2023-05-15T11:23:27;21.10;81.60
71084;DHT22;58741;52.672;13.548;2023-05-15T11:25:55;21.40;77.60
71084;DHT22;58741;52.672;13.548;2023-05-15T11:28:22;21.80;72.60
71084;DHT22;58741;52.672;13.548;2023-05-15T11:30:51;22.00;72.60
71084;DHT22;58741;52.672;13.548;2023-05-15T11:33:19;22.20;70.40
71084;DHT22;58741;52.672;13.548;2023-05-15T11:35:55;22.30;66.50
71084;DHT22;58741;52.672;13.548;2023-05-15T11:38:24;22.40;65.70
71084;DHT22;58741;52.672;13.548;2023-05-15T11:40:58;22.40;65.40
71084;DHT22;58741;52.672;13.548;2023-05-15T11:43:30;22.50;63.70
71084;DHT22;58741;52.672;13.548;2023-05-15T11:46:07;22.50;64.90
71084;DHT22;58741;52.672;13.548;2023-05-15T11:48:40;22.50;64.80
71084;DHT22;58741;52.672;13.548;2023-05-15T11:51:19;22.60;65.80
71084;DHT22;58741;52.672;13.548;2023-05-15T11:53:48;22.80;65.50
71084;DHT22;58741;52.672;13.548;2023-05-15T11:56:21;23.00;65.20
71084;DHT22;58741;52.672;13.548;2023-05-15T11:58:53;23.20;64.00
71084;DHT22;58741;52.672;13.548;2023-05-15T12:01:19;23.40;62.20
71084;DHT22;58741;52.672;13.548;2023-05-15T12:03:48;23.70;62.20
71084;DHT22;58741;52.672;13.548;2023-05-15T12:06:14;23.90;60.80
71084;DHT22;58741;52.672;13.548;2023-05-15T12:08:40;24.10;60.10
71084;DHT22;58741;52.672;13.548;2023-05-15T12:11:11;24.40;55.80
71084;DHT22;58741;52.672;13.548;2023-05-15T12:13:36;24.60;58.00
71084;DHT22;58741;52.672;13.548;2023-05-15T12:16:03;24.70;57.70
71084;DHT22;58741;52.672;13.548;2023-05-15T12:18:30;25.00;58.70
71084;DHT22;58741;52.672;13.548;2023-05-15T12:20:56;25.20;54.60
71084;DHT22;58741;52.672;13.548;2023-05-15T12:23:23;25.40;56.90
71084;DHT22;58741;52.672;13.548;2023-05-15T12:25:51;25.60;55.40
71084;DHT22;58741;52.672;13.548;2023-05-15T12:28:19;25.70;52.70
71084;DHT22;58741;52.672;13.548;2023-05-15T12:30:45;25.70;53.20
71084;DHT22;58741;52.672;13.548;2023-05-15T12:33:11;25.70;54.10
71084;DHT22;58741;52.672;13.548;2023-05-15T12:35:42;25.60;52.30
71084;DHT22;58741;52.672;13.548;2023-05-15T12:38:08;25.50;48.40
71084;DHT22;58741;52.672;13.548;2023-05-15T12:40:38;25.30;51.60
71084;DHT22;58741;52.672;13.548;2023-05-15T12:44:16;25.10;52.60
71084;DHT22;58741;52.672;13.548;2023-05-15T12:46:42;25.10;54.50
71084;DHT22;58741;52.672;13.548;2023-05-15T12:49:07;25.00;52.50
71084;DHT22;58741;52.672;13.548;2023-05-15T12:51:33;25.00;53.30
71084;DHT22;58741;52.672;13.548;2023-05-15T12:53:58;24.90;52.60
71084;DHT22;58741;52.672;13.548;2023-05-15T12:56:24;24.80;53.00
71084;DHT22;58741;52.672;13.548;2023-05-15T12:58:50;24.70;54.10
71084;DHT22;58741;52.672;13.548;2023-05-15T13:01:18;24.60;53.90
71084;DHT22;58741;52.672;13.548;2023-05-15T13:03:46;24.40;53.00
71084;DHT22;58741;52.672;13.548;2023-05-15T13:06:11;24.20;53.90
71084;DHT22;58741;52.672;13.548;2023-05-15T13:08:41;23.70;58.70
71084;DHT22;58741;52.672;13.548;2023-05-15T13:11:11;23.00;62.40
71084;DHT22;58741;52.672;13.548;2023-05-15T13:13:49;22.30;64.10
71084;DHT22;58741;52.672;13.548;2023-05-15T13:16:24;21.70;67.20
71084;DHT22;58741;52.672;13.548;2023-05-15T13:18:51;21.10;68.80
71084;DHT22;58741;52.672;13.548;2023-05-15T13:21:17;20.60;70.40
71084;DHT22;58741;52.672;13.548;2023-05-15T13:23:43;20.10;71.80
71084;DHT22;58741;52.672;13.548;2023-05-15T13:26:09;19.70;74.70
71084;DHT22;58741;52.672;13.548;2023-05-15T13:28:34;19.30;75.80
71084;DHT22;58741;52.672;13.548;2023-05-15T13:31:00;19.00;78.10
71084;DHT22;58741;52.672;13.548;2023-05-15T13:33:26;18.70;79.90
71084;DHT22;58741;52.672;13.548;2023-05-15T13:35:52;18.40;81.30
71084;DHT22;58741;52.672;13.548;2023-05-15T13:38:18;18.20;82.80
71084;DHT22;58741;52.672;13.548;2023-05-15T13:40:43;18.00;84.00
71084;DHT22;58741;52.672;13.548;2023-05-15T13:44:58;17.70;87.60
71084;DHT22;58741;52.672;13.548;2023-05-15T13:47:23;17.40;89.10
71084;DHT22;58741;52.672;13.548;2023-05-15T13:49:49;17.30;90.40
71084;DHT22;58741;52.672;13.548;2023-05-15T13:52:14;17.20;91.00
71084;DHT22;58741;52.672;13.548;2023-05-15T13:54:40;17.00;92.40
71084;DHT22;58741;52.672;13.548;2023-05-15T13:57:06;16.90;92.80
71084;DHT22;58741;52.672;13.548;2023-05-15T13:59:31;16.80;93.80
71084;DHT22;58741;52.672;13.548;2023-05-15T14:01:57;16.60;93.60
71084;DHT22;58741;52.672;13.548;2023-05-15T14:04:23;16.50;94.30
71084;DHT22;58741;52.672;13.548;2023-05-15T14:06:48;16.40;94.30
71084;DHT22;58741;52.672;13.548;2023-05-15T14:09:14;16.40;94.90
71084;DHT22;58741;52.672;13.548;2023-05-15T14:11:39;16.30;94.90
71084;DHT22;58741;52.672;13.548;2023-05-15T14:14:05;16.20;95.10
71084;DHT22;58741;52.672;13.548;2023-05-15T14:16:30;16.20;95.70
71084;DHT22;58741;52.672;13.548;2023-05-15T14:18:56;16.10;96.10
71084;DHT22;58741;52.672;13.548;2023-05-15T14:21:22;16.00;96.50
71084;DHT22;58741;52.672;13.548;2023-05-15T14:23:48;16.00;96.80
71084;DHT22;58741;52.672;13.548;2023-05-15T14:26:13;15.90;96.80
71084;DHT22;58741;52.672;13.548;2023-05-15T14:28:39;15.90;97.10
71084;DHT22;58741;52.672;13.548;2023-05-15T14:31:04;15.80;97.10
71084;DHT22;58741;52.672;13.548;2023-05-15T14:33:30;15.80;97.70
71084;DHT22;58741;52.672;13.548;2023-05-15T14:35:55;15.70;97.60
71084;DHT22;58741;52.672;13.548;2023-05-15T14:38:21;15.70;97.70
71084;DHT22;58741;52.672;13.548;2023-05-15T14:40:47;15.70;97.90
71084;DHT22;58741;52.672;13.548;2023-05-15T14:43:55;15.70;97.80
71084;DHT22;58741;52.672;13.548;2023-05-15T14:46:20;15.70;98.30
71084;DHT22;58741;52.672;13.548;2023-05-15T14:48:46;15.80;98.50
71084;DHT22;58741;52.672;13.548;2023-05-15T14:51:12;15.80;99.00
71084;DHT22;58741;52.672;13.548;2023-05-15T14:53:37;15.80;99.30
71084;DHT22;58741;52.672;13.548;2023-05-15T14:56:03;15.80;99.10
71084;DHT22;58741;52.672;13.548;2023-05-15T14:58:28;15.80;99.40
71084;DHT22;58741;52.672;13.548;2023-05-15T15:00:55;15.80;99.40
71084;DHT22;58741;52.672;13.548;2023-05-15T15:03:21;15.70;99.30
71084;DHT22;58741;52.672;13.548;2023-05-15T15:05:47;15.70;99.40
71084;DHT22;58741;52.672;13.548;2023-05-15T15:08:13;15.70;99.80
71084;DHT22;58741;52.672;13.548;2023-05-15T15:10:39;15.60;99.80
71084;DHT22;58741;52.672;13.548;2023-05-15T15:13:06;15.60;99.90
71084;DHT22;58741;52.672;13.548;2023-05-15T15:15:33;15.50;99.70
71084;DHT22;58741;52.672;13.548;2023-05-15T15:17:59;15.50;99.80
71084;DHT22;58741;52.672;13.548;2023-05-15T15:20:26;15.50;99.80
71084;DHT22;58741;52.672;13.548;2023-05-15T15:22:52;15.50;99.90
71084;DHT22;58741;52.672;13.548;2023-05-15T15:25:19;15.50;99.90
71084;DHT22;58741;52.672;13.548;2023-05-15T15:27:46;15.50;99.90
71084;DHT22;58741;52.672;13.548;2023-05-15T15:31:08;15.40;99.90
71084;DHT22;58741;52.672;13.548;2023-05-15T15:33:34;15.40;99.90
71084;DHT22;58741;52.672;13.548;2023-05-15T15:36:00;15.30;99.90
71084;DHT22;58741;52.672;13.548;2023-05-15T15:38:25;15.40;99.90
71084;DHT22;58741;52.672;13.548;2023-05-15T15:40:51;15.30;99.90
71084;DHT22;58741;52.672;13.548;2023-05-15T15:43:16;15.30;99.90
71084;DHT22;58741;52.672;13.548;2023-05-15T15:45:42;15.30;99.90
71084;DHT22;58741;52.672;13.548;2023-05-15T15:48:08;15.30;99.90
71084;DHT22;58741;52.672;13.548;2023-05-15T15:50:33;15.30;99.90
71084;DHT22;58741;52.672;13.548;2023-05-15T15:52:59;15.30;99.90
71084;DHT22;58741;52.672;13.548;2023-05-15T15:55:24;15.30;99.90